createdAt,value
2018-06-24T00:04:24.239Z,16.90
2018-06-24T00:07:09.284Z,17.10
2018-06-24T00:09:56.434Z,16.90
2018-06-24T00:12:35.573Z,16.80
2018-06-24T00:17:51.496Z,16.40
2018-06-24T00:20:31.657Z,16.20
2018-06-24T00:23:08.780Z,16.80
2018-06-24T00:25:50.647Z,17.00
2018-06-24T00:28:32.413Z,17.10
2018-06-24T00:37:18.068Z,17.00
2018-06-24T00:39:47.610Z,16.90
2018-06-24T00:42:17.260Z,16.80
2018-06-24T00:44:46.901Z,16.80
2018-06-24T00:47:16.500Z,17.00
2018-06-24T00:49:46.072Z,17.00
2018-06-24T00:52:18.842Z,17.10
2018-06-24T00:54:48.574Z,17.10
2018-06-24T00:57:21.381Z,17.20
2018-06-24T01:00:03.260Z,16.90
2018-06-24T01:02:32.876Z,16.80
2018-06-24T01:05:02.695Z,16.70
2018-06-24T01:07:32.356Z,16.80
2018-06-24T01:10:08.706Z,16.80
2018-06-24T01:12:38.438Z,16.80
2018-06-24T01:15:08.242Z,16.80
2018-06-24T01:17:38.173Z,16.80
2018-06-24T01:20:07.859Z,16.10
2018-06-24T01:22:38.744Z,16.20
2018-06-24T01:25:08.388Z,15.80
2018-06-24T01:27:38.906Z,16.30
2018-06-24T01:30:08.518Z,16.40
2018-06-24T01:32:38.095Z,16.60
2018-06-24T01:35:07.788Z,16.60
2018-06-24T01:37:38.291Z,16.80
2018-06-24T01:40:08.000Z,16.90
2018-06-24T01:42:37.653Z,16.90
2018-06-24T01:45:07.358Z,16.80
2018-06-24T01:47:37.142Z,16.60
2018-06-24T01:50:06.986Z,16.20
2018-06-24T01:52:37.865Z,16.00
2018-06-24T01:55:07.574Z,16.40
2018-06-24T01:57:37.232Z,16.60
2018-06-24T02:00:07.740Z,16.70
2018-06-24T02:02:37.655Z,16.80
2018-06-24T02:05:07.744Z,16.80
2018-06-24T02:07:38.083Z,16.80
2018-06-24T02:10:07.997Z,16.80
2018-06-24T02:12:38.357Z,16.80
2018-06-24T02:15:08.086Z,16.70
2018-06-24T02:17:38.221Z,16.70
2018-06-24T02:20:07.859Z,16.80
2018-06-24T02:22:38.214Z,16.60
2018-06-24T02:25:07.813Z,16.70
2018-06-24T02:27:37.481Z,16.70
2018-06-24T02:30:07.165Z,16.40
2018-06-24T02:32:37.044Z,16.60
2018-06-24T02:35:06.691Z,16.70
2018-06-24T02:37:36.383Z,16.70
2018-06-24T02:40:06.070Z,16.20
2018-06-24T02:42:37.382Z,15.90
2018-06-24T02:45:07.497Z,16.20
2018-06-24T02:47:37.177Z,16.20
2018-06-24T02:50:07.964Z,16.10
2018-06-24T02:52:39.880Z,15.90
2018-06-24T02:55:09.966Z,15.70
2018-06-24T02:57:39.617Z,15.60
2018-06-24T03:00:09.390Z,15.40
2018-06-24T03:05:15.433Z,15.30
2018-06-24T03:07:45.150Z,15.30
2018-06-24T03:10:14.839Z,15.30
2018-06-24T03:12:45.705Z,15.30
2018-06-24T03:15:15.785Z,15.30
2018-06-24T03:17:45.545Z,15.40
2018-06-24T03:20:15.773Z,15.40
2018-06-24T03:22:51.146Z,15.10
2018-06-24T03:25:21.726Z,15.00
2018-06-24T03:27:51.335Z,15.20
2018-06-24T03:30:21.988Z,15.30
2018-06-24T03:32:51.885Z,15.20
2018-06-24T03:37:56.919Z,15.20
2018-06-24T03:40:26.650Z,14.90
2018-06-24T03:42:57.342Z,14.60
2018-06-24T03:45:27.153Z,14.60
2018-06-24T03:47:56.777Z,15.20
2018-06-24T03:50:27.705Z,15.90
2018-06-24T03:53:01.011Z,16.20
2018-06-24T03:55:30.868Z,16.00
2018-06-24T03:58:00.598Z,15.90
2018-06-24T04:00:30.242Z,15.60
2018-06-24T04:03:02.764Z,15.40
2018-06-24T04:05:33.108Z,15.40
2018-06-24T04:08:02.875Z,15.00
2018-06-24T04:10:32.503Z,15.20
2018-06-24T04:13:03.626Z,15.50
2018-06-24T04:15:34.089Z,15.90
2018-06-24T04:20:39.061Z,16.60
2018-06-24T04:23:10.096Z,16.90
2018-06-24T04:25:39.777Z,17.00
2018-06-24T04:28:09.422Z,17.00
2018-06-24T04:30:39.086Z,17.00
2018-06-24T04:35:45.553Z,16.90
2018-06-24T04:38:15.857Z,16.50
2018-06-24T04:40:45.480Z,16.60
2018-06-24T04:43:15.979Z,16.70
2018-06-24T04:45:45.676Z,16.80
2018-06-24T04:48:15.348Z,16.60
2018-06-24T04:50:45.016Z,16.40
2018-06-24T04:53:16.285Z,16.60
2018-06-24T04:55:46.674Z,16.60
2018-06-24T04:58:16.380Z,16.80
2018-06-24T05:00:46.540Z,16.90
2018-06-24T05:03:16.769Z,16.50
2018-06-24T05:05:46.460Z,16.70
2018-06-24T05:08:16.144Z,16.90
2018-06-24T05:10:46.153Z,16.90
2018-06-24T05:13:15.799Z,17.00
2018-06-24T05:15:46.293Z,17.10
2018-06-24T05:18:15.928Z,17.20
2018-06-24T05:20:45.877Z,17.10
2018-06-24T05:23:15.597Z,17.10
2018-06-24T05:25:45.289Z,16.60
2018-06-24T05:28:14.982Z,16.40
2018-06-24T05:30:44.677Z,16.50
2018-06-24T05:33:14.571Z,16.40
2018-06-24T05:35:44.289Z,16.70
2018-06-24T05:38:13.996Z,16.50
2018-06-24T05:40:43.901Z,16.20
2018-06-24T05:43:13.617Z,16.50
2018-06-24T05:45:43.437Z,16.40
2018-06-24T05:48:13.112Z,16.30
2018-06-24T05:50:42.807Z,16.40
2018-06-24T05:53:12.450Z,16.30
2018-06-24T05:55:42.075Z,16.50
2018-06-24T05:58:11.937Z,16.80
2018-06-24T06:00:41.561Z,16.80
2018-06-24T06:03:11.772Z,17.20
2018-06-24T06:05:41.402Z,17.00
2018-06-24T06:08:11.112Z,17.30
2018-06-24T06:10:40.957Z,17.10
2018-06-24T06:13:10.630Z,17.10
2018-06-24T06:15:40.236Z,17.10
2018-06-24T06:18:10.601Z,17.30
2018-06-24T06:23:15.621Z,17.70
2018-06-24T06:25:45.270Z,17.70
2018-06-24T06:28:17.250Z,18.10
2018-06-24T06:30:49.393Z,18.50
2018-06-24T06:33:20.070Z,18.80
2018-06-24T06:35:49.802Z,19.40
2018-06-24T06:38:19.477Z,19.20
2018-06-24T06:40:53.657Z,19.10
2018-06-24T06:43:24.798Z,18.60
2018-06-24T06:45:55.825Z,17.80
2018-06-24T06:48:25.508Z,18.20
2018-06-24T06:50:57.549Z,18.60
2018-06-24T06:53:28.073Z,18.30
2018-06-24T06:55:58.097Z,18.20
2018-06-24T06:58:29.152Z,18.10
2018-06-24T07:00:59.580Z,17.60
2018-06-24T07:03:29.218Z,17.70
2018-06-24T07:05:59.577Z,17.90
2018-06-24T07:08:29.352Z,18.00
2018-06-24T07:10:59.112Z,18.20
2018-06-24T07:13:28.906Z,18.00
2018-06-24T07:15:58.545Z,18.20
2018-06-24T07:18:28.304Z,18.50
2018-06-24T07:23:35.940Z,19.10
2018-06-24T07:28:42.261Z,18.60
2018-06-24T07:31:12.300Z,18.50
2018-06-24T07:33:42.778Z,18.40
2018-06-24T07:36:13.125Z,18.50
2018-06-24T07:38:43.990Z,18.40
2018-06-24T07:41:15.046Z,18.50
2018-06-24T07:43:45.821Z,18.50
2018-06-24T07:46:15.684Z,18.60
2018-06-24T07:48:45.713Z,18.20
2018-06-24T07:51:16.741Z,18.80
2018-06-24T07:53:48.480Z,19.20
2018-06-24T07:56:19.585Z,19.20
2018-06-24T07:58:50.492Z,18.90
2018-06-24T08:01:20.048Z,18.70
2018-06-24T08:03:50.318Z,18.50
2018-06-24T08:08:56.097Z,19.30
2018-06-24T08:11:26.789Z,19.00
2018-06-24T08:13:57.856Z,18.90
2018-06-24T08:16:29.695Z,18.90
2018-06-24T08:19:01.783Z,19.30
2018-06-24T08:21:31.410Z,19.40
2018-06-24T08:24:02.681Z,19.30
2018-06-24T08:26:33.841Z,19.10
2018-06-24T08:29:04.554Z,19.00
2018-06-24T08:31:35.769Z,19.50
2018-06-24T08:36:43.324Z,19.90
2018-06-24T08:39:13.313Z,19.40
2018-06-24T08:41:43.556Z,19.40
2018-06-24T08:44:14.199Z,19.50
2018-06-24T08:46:44.890Z,19.60
2018-06-24T08:49:14.817Z,19.70
2018-06-24T08:51:45.170Z,19.70
2018-06-24T08:54:15.468Z,19.90
2018-06-24T08:56:46.254Z,19.50
2018-06-24T08:59:16.332Z,19.70
2018-06-24T09:01:46.525Z,19.70
2018-06-24T09:04:16.865Z,20.20
2018-06-24T09:06:47.041Z,20.30
2018-06-24T09:09:17.165Z,20.50
2018-06-24T09:11:47.580Z,20.20
2018-06-24T09:14:19.891Z,20.10
2018-06-24T09:16:50.249Z,20.30
2018-06-24T09:19:20.879Z,20.30
2018-06-24T09:21:53.068Z,20.10
2018-06-24T09:24:24.132Z,20.40
2018-06-24T09:26:53.849Z,20.50
2018-06-24T09:29:24.501Z,19.80
2018-06-24T09:31:56.018Z,19.70
2018-06-24T09:34:26.077Z,19.80
2018-06-24T09:36:56.072Z,20.20
2018-06-24T09:39:26.425Z,20.60
2018-06-24T09:41:56.137Z,20.60
2018-06-24T09:44:26.101Z,20.80
2018-06-24T09:46:56.241Z,21.00
2018-06-24T09:49:26.084Z,21.30
2018-06-24T09:51:56.279Z,20.40
2018-06-24T09:54:26.208Z,20.30
2018-06-24T09:57:05.871Z,20.40
2018-06-24T09:59:36.581Z,20.20
2018-06-24T10:02:07.070Z,20.50
2018-06-24T10:04:38.016Z,20.70
2018-06-24T10:07:09.348Z,21.00
2018-06-24T10:09:39.008Z,21.00
2018-06-24T10:12:09.411Z,20.80
2018-06-24T10:14:39.789Z,20.70
2018-06-24T10:17:10.141Z,21.10
2018-06-24T10:19:40.085Z,21.20
2018-06-24T10:22:09.965Z,21.50
2018-06-24T10:24:39.994Z,20.90
2018-06-24T10:27:10.548Z,20.80
2018-06-24T10:29:40.442Z,21.00
2018-06-24T10:32:10.059Z,20.80
2018-06-24T10:34:40.395Z,21.60
2018-06-24T10:37:10.236Z,22.20
2018-06-24T10:39:40.369Z,21.90
2018-06-24T10:42:10.683Z,21.60
2018-06-24T10:44:41.288Z,21.50
2018-06-24T10:47:12.285Z,21.70
2018-06-24T10:49:42.800Z,21.40
2018-06-24T10:52:13.241Z,21.40
2018-06-24T10:54:43.776Z,21.80
2018-06-24T10:57:14.283Z,22.60
2018-06-24T10:59:46.041Z,23.10
2018-06-24T11:02:17.619Z,22.60
2018-06-24T11:04:49.994Z,22.20
2018-06-24T11:07:21.068Z,22.30
2018-06-24T11:09:51.456Z,22.30
2018-06-24T11:12:21.831Z,22.20
2018-06-24T11:14:52.409Z,21.90
2018-06-24T11:17:22.443Z,22.60
2018-06-24T11:19:52.582Z,22.70
2018-06-24T11:22:22.706Z,22.90
2018-06-24T11:27:29.943Z,21.90
2018-06-24T11:29:59.853Z,22.50
2018-06-24T11:32:30.521Z,22.00
2018-06-24T11:35:00.264Z,22.10
2018-06-24T11:37:32.229Z,22.60
2018-06-24T11:40:01.910Z,23.00
2018-06-24T11:42:31.579Z,23.30
2018-06-24T11:45:01.905Z,22.90
2018-06-24T11:47:31.654Z,22.50
2018-06-24T11:50:02.136Z,22.60
2018-06-24T11:52:32.167Z,22.70
2018-06-24T11:55:05.640Z,22.80
2018-06-24T11:57:35.459Z,22.70
2018-06-24T12:00:06.993Z,23.00
2018-06-24T12:02:37.254Z,22.90
2018-06-24T12:05:06.931Z,23.30
2018-06-24T12:07:36.568Z,23.50
2018-06-24T12:10:07.076Z,23.80
2018-06-24T12:15:12.570Z,23.60
2018-06-24T12:17:42.165Z,24.10
2018-06-24T12:20:11.889Z,24.30
2018-06-24T12:22:44.964Z,23.90
2018-06-24T12:25:14.841Z,23.80
2018-06-24T12:27:44.501Z,23.50
2018-06-24T12:30:14.171Z,23.20
2018-06-24T12:32:43.933Z,22.80
2018-06-24T12:35:13.683Z,22.80
2018-06-24T12:37:43.354Z,23.00
2018-06-24T12:40:23.798Z,23.20
2018-06-24T12:42:53.597Z,22.70
2018-06-24T12:45:23.434Z,22.30
2018-06-24T12:47:53.124Z,22.90
2018-06-24T12:50:23.058Z,23.10
2018-06-24T12:52:53.078Z,23.00
2018-06-24T12:55:22.730Z,23.50
2018-06-24T12:57:52.513Z,23.60
2018-06-24T13:00:22.650Z,24.20
2018-06-24T13:02:51.914Z,24.40
2018-06-24T13:05:21.545Z,23.60
2018-06-24T13:07:51.243Z,23.50
2018-06-24T13:10:20.853Z,22.70
2018-06-24T13:12:50.466Z,23.00
2018-06-24T13:15:20.376Z,23.10
2018-06-24T13:17:49.979Z,23.30
2018-06-24T13:20:19.620Z,23.60
2018-06-24T13:22:49.243Z,23.10
2018-06-24T13:25:19.433Z,23.00
2018-06-24T13:27:49.095Z,23.00
2018-06-24T13:30:18.751Z,23.40
2018-06-24T13:32:48.375Z,24.00
2018-06-24T13:35:18.258Z,23.70
2018-06-24T13:37:48.095Z,23.50
2018-06-24T13:40:17.847Z,24.20
2018-06-24T13:42:47.521Z,24.10
2018-06-24T13:45:17.177Z,24.30
2018-06-24T13:47:46.865Z,24.70
2018-06-24T13:50:16.790Z,24.90
2018-06-24T13:52:47.065Z,25.00
2018-06-24T13:55:16.693Z,24.70
2018-06-24T13:57:46.288Z,23.90
2018-06-24T14:00:22.018Z,23.80
2018-06-24T14:02:51.829Z,23.80
2018-06-24T14:05:21.457Z,23.60
2018-06-24T14:07:51.288Z,23.80
2018-06-24T14:10:21.028Z,23.50
2018-06-24T14:12:52.327Z,23.90
2018-06-24T14:15:22.703Z,24.00
2018-06-24T14:17:52.465Z,23.80
2018-06-24T14:20:22.306Z,24.20
2018-06-24T14:22:52.009Z,24.30
2018-06-24T14:25:21.869Z,23.80
2018-06-24T14:27:52.577Z,24.10
2018-06-24T14:30:22.219Z,24.40
2018-06-24T14:32:52.036Z,24.70
2018-06-24T14:35:21.669Z,24.50
2018-06-24T14:37:51.412Z,24.40
2018-06-24T14:40:21.322Z,24.40
2018-06-24T14:42:50.959Z,24.40
2018-06-24T14:45:20.622Z,24.60
2018-06-24T14:47:50.262Z,25.00
2018-06-24T14:50:19.951Z,25.30
2018-06-24T14:52:49.639Z,25.80
2018-06-24T14:57:54.690Z,25.30
2018-06-24T15:00:24.277Z,25.40
2018-06-24T15:02:54.164Z,25.00
2018-06-24T15:05:24.513Z,25.50
2018-06-24T15:07:54.238Z,25.60
2018-06-24T15:10:24.013Z,25.70
2018-06-24T15:12:53.945Z,25.70
2018-06-24T15:15:23.778Z,25.60
2018-06-24T15:17:53.509Z,25.40
2018-06-24T15:20:23.212Z,25.20
2018-06-24T15:22:52.793Z,25.60
2018-06-24T15:25:22.385Z,25.40
2018-06-24T15:27:52.029Z,25.40
2018-06-24T15:30:21.734Z,25.20
2018-06-24T15:32:51.723Z,25.00
2018-06-24T15:35:21.389Z,24.80
2018-06-24T15:37:51.101Z,24.60
2018-06-24T15:40:20.877Z,24.80
2018-06-24T15:42:56.948Z,24.80
2018-06-24T15:45:26.756Z,24.80
2018-06-24T15:47:56.571Z,23.90
2018-06-24T15:50:26.217Z,23.60
2018-06-24T15:52:55.848Z,23.50
2018-06-24T15:55:25.438Z,23.10
2018-06-24T15:57:55.316Z,23.10
2018-06-24T16:00:25.284Z,23.10
2018-06-24T16:02:55.100Z,23.00
2018-06-24T16:05:24.768Z,22.80
2018-06-24T16:07:54.386Z,22.80
2018-06-24T16:10:24.013Z,22.60
2018-06-24T16:12:53.644Z,22.80
2018-06-24T16:15:23.296Z,22.80
2018-06-24T16:17:52.936Z,22.70
2018-06-24T16:20:22.653Z,22.50
2018-06-24T16:22:52.392Z,22.10
2018-06-24T16:25:21.842Z,22.40
2018-06-24T16:27:51.551Z,22.60
2018-06-24T16:30:21.109Z,22.70
2018-06-24T16:32:51.940Z,22.40
2018-06-24T16:35:21.713Z,22.40
2018-06-24T16:37:51.379Z,22.30
2018-06-24T16:40:21.021Z,22.30
2018-06-24T16:42:50.639Z,22.20
2018-06-24T16:45:20.377Z,22.20
2018-06-24T16:47:50.073Z,22.40
2018-06-24T16:50:19.688Z,22.40
2018-06-24T16:52:49.477Z,22.10
2018-06-24T16:55:19.196Z,22.10
2018-06-24T16:57:48.820Z,22.00
2018-06-24T17:00:18.383Z,22.10
2018-06-24T17:02:48.279Z,21.90
2018-06-24T17:05:17.863Z,22.20
2018-06-24T17:07:47.669Z,22.20
2018-06-24T17:10:17.494Z,21.90
2018-06-24T17:12:47.292Z,21.70
2018-06-24T17:15:16.989Z,21.70
2018-06-24T17:17:46.608Z,21.60
2018-06-24T17:20:16.356Z,21.50
2018-06-24T17:22:46.477Z,21.50
2018-06-24T17:25:16.034Z,21.40
2018-06-24T17:27:45.821Z,21.20
2018-06-24T17:30:18.603Z,21.30
2018-06-24T17:32:48.280Z,21.20
2018-06-24T17:35:18.044Z,21.30
2018-06-24T17:40:23.450Z,21.30
2018-06-24T17:42:53.319Z,21.30
2018-06-24T17:45:22.996Z,21.10
2018-06-24T17:50:32.128Z,21.10
2018-06-24T17:53:02.351Z,20.90
2018-06-24T17:55:32.152Z,21.00
2018-06-24T17:58:02.392Z,21.00
2018-06-24T18:00:33.106Z,20.90
2018-06-24T18:03:02.753Z,21.00
2018-06-24T18:05:32.670Z,21.00
2018-06-24T18:08:02.827Z,20.90
2018-06-24T18:10:32.441Z,21.00
2018-06-24T18:13:02.158Z,21.00
2018-06-24T18:15:31.990Z,21.10
2018-06-24T18:18:01.728Z,21.10
2018-06-24T18:20:32.416Z,21.10
2018-06-24T18:23:02.085Z,21.00
2018-06-24T18:25:33.104Z,21.00
2018-06-24T18:28:04.001Z,20.70
2018-06-24T18:30:34.526Z,20.60
2018-06-24T18:33:04.925Z,20.70
2018-06-24T18:35:35.125Z,20.70
2018-06-24T18:38:04.991Z,20.80
2018-06-24T18:40:34.805Z,20.70
2018-06-24T18:43:04.518Z,20.70
2018-06-24T18:45:34.161Z,20.40
2018-06-24T18:48:04.840Z,20.50
2018-06-24T18:50:34.653Z,20.70
2018-06-24T18:58:15.801Z,20.50
2018-06-24T19:00:45.595Z,20.20
2018-06-24T19:03:15.380Z,20.20
2018-06-24T19:05:45.069Z,20.10
2018-06-24T19:08:14.852Z,20.10
2018-06-24T19:10:44.576Z,20.10
2018-06-24T19:13:14.203Z,20.00
2018-06-24T19:15:44.013Z,19.90
2018-06-24T19:18:14.129Z,19.90
2018-06-24T19:20:43.783Z,19.70
2018-06-24T19:23:14.160Z,19.80
2018-06-24T19:25:43.973Z,19.90
2018-06-24T19:28:14.779Z,19.80
2018-06-24T19:30:44.632Z,19.80
2018-06-24T19:33:14.275Z,19.80
2018-06-24T19:35:43.905Z,19.70
2018-06-24T19:38:13.524Z,19.60
2018-06-24T19:40:43.264Z,19.50
2018-06-24T19:43:13.179Z,19.40
2018-06-24T19:45:42.807Z,19.50
2018-06-24T19:48:15.914Z,19.30
2018-06-24T19:50:45.809Z,19.10
2018-06-24T19:53:15.452Z,19.10
2018-06-24T20:00:58.813Z,19.60
2018-06-24T20:03:28.477Z,19.50
2018-06-24T20:05:58.275Z,19.40
2018-06-24T20:08:28.014Z,19.10
2018-06-24T20:10:57.741Z,19.00
2018-06-24T20:13:28.036Z,18.90
2018-06-24T20:16:01.516Z,19.10
2018-06-24T20:18:31.612Z,19.20
2018-06-24T20:21:02.221Z,19.20
2018-06-24T20:23:34.958Z,19.10
2018-06-24T20:26:05.215Z,19.10
2018-06-24T20:28:34.908Z,19.10
2018-06-24T20:31:05.440Z,19.10
2018-06-24T20:33:35.988Z,19.00
2018-06-24T20:36:05.872Z,19.00
2018-06-24T20:38:35.598Z,18.90
2018-06-24T20:41:06.484Z,18.80
2018-06-24T20:43:37.977Z,18.70
2018-06-24T20:46:07.607Z,18.70
2018-06-24T20:48:37.207Z,18.80
2018-06-24T20:51:07.478Z,18.70
2018-06-24T20:53:37.173Z,18.70
2018-06-24T20:56:07.509Z,18.60
2018-06-24T20:58:37.596Z,18.30
2018-06-24T21:01:07.964Z,18.40
2018-06-24T21:03:37.743Z,18.50
2018-06-24T21:06:12.228Z,18.80
2018-06-24T21:08:42.007Z,18.60
2018-06-24T21:11:11.605Z,18.70
2018-06-24T21:13:41.914Z,18.80
2018-06-24T21:16:12.397Z,18.80
2018-06-24T21:18:43.968Z,18.90
2018-06-24T21:21:14.624Z,18.80
2018-06-24T21:28:55.604Z,18.70
2018-06-24T21:31:25.208Z,18.80
2018-06-24T21:33:54.887Z,18.80
2018-06-24T21:36:24.670Z,18.80
2018-06-24T21:38:54.329Z,18.70
2018-06-24T21:41:24.009Z,18.50
2018-06-24T21:43:53.629Z,18.20
2018-06-24T21:46:23.293Z,18.50
2018-06-24T21:48:52.986Z,18.30
2018-06-24T21:51:22.593Z,18.40
2018-06-24T21:53:52.293Z,18.20
2018-06-24T21:56:21.858Z,18.10
2018-06-24T21:58:51.804Z,18.00
2018-06-24T22:01:21.416Z,18.10
2018-06-24T22:03:51.072Z,18.30
2018-06-24T22:06:20.681Z,18.40
2018-06-24T22:08:50.295Z,17.90
2018-06-24T22:11:19.920Z,17.90
2018-06-24T22:13:49.590Z,17.50
2018-06-24T22:16:19.573Z,17.10
2018-06-24T22:18:49.160Z,17.50
2018-06-24T22:21:18.808Z,17.20
2018-06-24T22:23:49.284Z,17.20
2018-06-24T22:26:18.919Z,17.40
2018-06-24T22:28:51.198Z,17.50
2018-06-24T22:31:21.152Z,16.90
2018-06-24T22:33:52.229Z,17.00
2018-06-24T22:36:22.040Z,17.30
2018-06-24T22:38:51.764Z,17.30
2018-06-24T22:41:21.549Z,17.30
2018-06-24T22:43:51.241Z,17.20
2018-06-24T22:46:20.822Z,17.10
2018-06-24T22:48:50.494Z,17.30
2018-06-24T22:53:56.630Z,17.40
2018-06-24T22:56:26.261Z,17.40
2018-06-24T22:59:10.593Z,17.40
2018-06-24T23:01:40.184Z,17.40
2018-06-24T23:04:09.718Z,17.30
2018-06-24T23:06:39.328Z,17.20
2018-06-24T23:09:09.183Z,17.20
2018-06-24T23:11:38.745Z,17.00
2018-06-24T23:14:08.426Z,17.00
2018-06-24T23:16:38.372Z,17.00
2018-06-24T23:19:08.022Z,16.90
2018-06-24T23:21:37.767Z,16.90
2018-06-24T23:24:07.344Z,16.80
2018-06-24T23:29:11.953Z,16.90
2018-06-24T23:31:41.525Z,17.10
2018-06-24T23:34:11.175Z,16.80
2018-06-24T23:36:40.879Z,16.80
2018-06-24T23:39:10.740Z,16.80
2018-06-24T23:46:51.186Z,16.50
2018-06-24T23:49:20.840Z,16.90
2018-06-24T23:51:50.430Z,16.80
2018-06-24T23:54:20.124Z,16.60
2018-06-24T23:56:49.897Z,16.70
2018-06-24T23:59:19.497Z,16.80
